Promontory, Utah
Current Conditions -  °F | °C
As of 1:55 AM on Sunday 21 Dec 2014 (Local Time) from KBMC Reporting Station
Overcast Overcast  
Wind Chill:   Ceiling: 3100
Heat Index:   Visibility: 10mi
Dew Point:   Wind: 9mph
Humidity: 79%   Direction: 180°S
Pressure: 29.99"   Gusts: 13mph
Location:  41.5038°N, 112.48°W
Report Text: KBMC 210855Z AUTO 18008G11KT 10SM OVC031 05/02 A2999 RMK AO1 T00480015
Loading
Personal Weather Stations






























Interactive Weather Map New forecast layout! Learn more

10-Day Weather Forecast

Advertisements
Track Severe Weather on mobile